createdAt,value
2024-05-09T00:00:02.088Z,124.74
2024-05-09T00:15:02.242Z,124.57
2024-05-09T00:30:01.641Z,124.5
2024-05-09T00:45:01.538Z,124.25
2024-05-09T01:00:01.752Z,124.25
2024-05-09T01:15:01.853Z,124.13
2024-05-09T01:30:02.992Z,123.97
2024-05-09T01:45:02.219Z,123.28
2024-05-09T02:00:02.414Z,122.63
2024-05-09T02:15:02.537Z,123.4
2024-05-09T02:30:02.823Z,123.4
2024-05-09T02:45:01.346Z,123.81
2024-05-09T03:00:01.682Z,124.21
2024-05-09T03:15:01.758Z,124.41
2024-05-09T03:30:02.859Z,124.33
2024-05-09T03:45:01.667Z,124.25
2024-05-09T04:00:02.827Z,123.77
2024-05-09T04:15:01.990Z,122.83
2024-05-09T04:30:02.239Z,123.4
2024-05-09T04:45:02.333Z,122.87
2024-05-09T05:00:03.053Z,121.86
2024-05-09T05:15:02.702Z,120.57
2024-05-09T05:30:01.480Z,120.4
2024-05-09T05:45:01.764Z,119.8
2024-05-09T06:00:02.196Z,119.15
2024-05-09T06:15:01.486Z,118.18
2024-05-09T06:30:02.195Z,113.24
2024-05-09T06:45:02.074Z,109.2
2024-05-09T07:00:02.078Z,108.39
2024-05-09T07:15:01.499Z,106.6
2024-05-09T07:30:02.228Z,100.1
2024-05-09T07:45:14.668Z,100.17
2024-05-09T08:00:02.483Z,93.86
2024-05-09T08:15:01.867Z,89.77
2024-05-09T08:30:02.375Z,81.8
2024-05-09T08:45:01.575Z,78.36
2024-05-09T09:00:03.550Z,76.78
2024-05-09T09:15:01.744Z,75.4
2024-05-09T09:30:02.922Z,71.68
2024-05-09T09:45:04.043Z,73.46
2024-05-09T10:00:05.500Z,67.75
2024-05-09T10:15:02.002Z,60.95
2024-05-09T10:30:01.392Z,52.9
2024-05-09T10:45:01.652Z,48.77
2024-05-09T11:00:02.619Z,48.24
2024-05-09T11:15:01.655Z,47.11
2024-05-09T11:30:01.933Z,55.73
2024-05-09T11:45:02.203Z,58.12
2024-05-09T12:00:02.344Z,70.38
2024-05-09T12:15:02.433Z,69.49
2024-05-09T12:30:01.796Z,73.62
2024-05-09T12:45:02.002Z,70.87
2024-05-09T13:00:02.942Z,72.12
2024-05-09T13:15:01.306Z,70.5
2024-05-09T13:30:02.963Z,72.61
2024-05-09T13:45:02.694Z,76.82
2024-05-09T14:00:01.427Z,77.18
2024-05-09T14:15:01.949Z,77.75
2024-05-09T14:30:01.356Z,75.97
2024-05-09T14:45:01.637Z,74.43
2024-05-09T15:00:02.112Z,73.7
2024-05-09T15:15:01.809Z,72.49
2024-05-09T15:30:02.176Z,72.85
2024-05-09T15:45:01.955Z,75.32
2024-05-09T16:00:02.686Z,80.6
2024-05-09T16:15:02.317Z,80.62
2024-05-09T16:30:01.466Z,82.52
2024-05-09T16:45:02.681Z,85.15
2024-05-09T17:00:03.237Z,88.35
2024-05-09T17:15:01.593Z,90.9
2024-05-09T17:30:01.919Z,91.19
2024-05-09T17:45:02.234Z,92.68
2024-05-09T18:00:01.700Z,94.5
2024-05-09T18:15:01.783Z,95.92
2024-05-09T18:30:01.993Z,97.26
2024-05-09T18:45:02.151Z,99.8
2024-05-09T19:00:02.292Z,100.45
2024-05-09T19:15:02.533Z,101.63
2024-05-09T19:45:01.552Z,105.39
2024-05-09T20:00:01.903Z,106.12
2024-05-09T20:15:02.158Z,107.9
2024-05-09T20:30:01.511Z,108.51
2024-05-09T20:45:01.749Z,109.68
2024-05-09T21:00:02.500Z,108.39
2024-05-09T21:15:02.131Z,108.22
2024-05-09T21:30:02.454Z,109.52
2024-05-09T21:45:02.216Z,111.14
2024-05-09T22:00:03.182Z,110.77
2024-05-09T22:15:02.564Z,111.22
2024-05-09T22:30:02.868Z,111.7
2024-05-09T22:45:01.362Z,112.92
2024-05-09T23:00:01.749Z,112.92
2024-05-09T23:15:01.444Z,112.68
2024-05-09T23:30:01.778Z,111.38
2024-05-09T23:45:02.110Z,114.1
